createdAt,value
2022-08-04T00:00:21.801Z,21.47
2022-08-04T00:03:13.234Z,21.44
2022-08-04T00:05:54.745Z,21.49
2022-08-04T00:08:34.768Z,21.53
2022-08-04T00:11:04.091Z,21.51
2022-08-04T00:13:36.551Z,21.48
2022-08-04T00:16:07.555Z,21.45
2022-08-04T00:18:41.300Z,21.35
2022-08-04T00:21:14.797Z,21.36
2022-08-04T00:24:11.023Z,21.29
2022-08-04T00:26:35.074Z,21.23
2022-08-04T00:29:03.763Z,21.23
2022-08-04T00:31:53.576Z,21.25
2022-08-04T00:34:21.264Z,21.21
2022-08-04T00:36:52.353Z,21.16
2022-08-04T00:39:21.789Z,21.06
2022-08-04T00:42:01.381Z,21.01
2022-08-04T00:44:40.196Z,21.00
2022-08-04T00:47:33.574Z,20.92
2022-08-04T00:50:12.812Z,21.00
2022-08-04T00:53:02.255Z,20.95
2022-08-04T00:55:45.743Z,20.89
2022-08-04T00:58:37.339Z,20.88
2022-08-04T01:01:07.657Z,20.87
2022-08-04T01:03:50.946Z,20.85
2022-08-04T01:06:36.086Z,20.84
2022-08-04T01:09:21.168Z,20.80
2022-08-04T01:12:12.092Z,21.00
2022-08-04T01:14:53.848Z,20.87
2022-08-04T01:17:26.754Z,20.72
2022-08-04T01:20:06.308Z,20.63
2022-08-04T01:23:09.656Z,20.60
2022-08-04T01:26:42.344Z,20.62
2022-08-04T01:29:11.102Z,20.49
2022-08-04T01:31:51.665Z,20.54
2022-08-04T01:34:21.716Z,20.56
2022-08-04T01:36:59.630Z,20.54
2022-08-04T01:39:41.985Z,20.47
2022-08-04T01:42:12.567Z,20.48
2022-08-04T01:44:51.164Z,20.39
2022-08-04T01:47:22.904Z,20.34
2022-08-04T01:49:53.128Z,20.36
2022-08-04T01:52:24.646Z,20.28
2022-08-04T01:54:53.321Z,20.30
2022-08-04T01:57:37.213Z,20.24
2022-08-04T02:00:11.028Z,20.12
2022-08-04T02:02:40.072Z,20.15
2022-08-04T02:05:11.541Z,20.15
2022-08-04T02:07:51.888Z,20.13
2022-08-04T02:10:28.944Z,20.09
2022-08-04T02:13:09.286Z,20.02
2022-08-04T02:15:48.367Z,20.09
2022-08-04T02:18:24.347Z,20.04
2022-08-04T02:20:58.602Z,19.95
2022-08-04T02:23:32.740Z,19.92
2022-08-04T02:26:04.517Z,19.92
2022-08-04T02:28:39.225Z,19.88
2022-08-04T02:31:30.638Z,19.95
2022-08-04T02:34:07.271Z,19.83
2022-08-04T02:36:38.443Z,19.81
2022-08-04T02:39:08.788Z,19.76
2022-08-04T02:41:38.047Z,19.79
2022-08-04T02:44:08.072Z,19.70
2022-08-04T02:46:38.918Z,19.75
2022-08-04T02:49:09.339Z,19.75
2022-08-04T02:51:41.571Z,19.70
2022-08-04T02:54:10.353Z,19.74
2022-08-04T02:56:40.615Z,19.69
2022-08-04T02:59:10.898Z,19.68
2022-08-04T03:01:56.564Z,19.68
2022-08-04T03:04:43.469Z,19.65
2022-08-04T03:07:52.985Z,19.58
2022-08-04T03:10:39.492Z,19.53
2022-08-04T03:13:43.011Z,19.59
2022-08-04T03:16:45.310Z,19.57
2022-08-04T03:19:50.932Z,19.51
2022-08-04T03:23:13.116Z,19.48
2022-08-04T03:26:09.027Z,19.48
2022-08-04T03:29:11.149Z,19.45
2022-08-04T03:32:02.981Z,19.41
2022-08-04T03:34:43.629Z,19.41
2022-08-04T03:37:40.005Z,19.40
2022-08-04T03:40:34.726Z,19.35
2022-08-04T03:43:57.515Z,19.24
2022-08-04T03:46:46.987Z,19.25
2022-08-04T03:49:54.271Z,19.27
2022-08-04T03:53:10.343Z,19.24
2022-08-04T03:55:47.727Z,19.28
2022-08-04T03:58:41.950Z,19.23
2022-08-04T04:01:24.533Z,19.17
2022-08-04T04:04:27.943Z,19.17
2022-08-04T04:07:36.183Z,19.09
2022-08-04T04:10:42.823Z,19.06
2022-08-04T04:13:51.746Z,19.01
2022-08-04T04:16:38.690Z,18.93
2022-08-04T04:19:43.753Z,18.98
2022-08-04T04:22:33.201Z,18.86
2022-08-04T04:25:12.463Z,18.89
2022-08-04T04:28:45.507Z,18.96
2022-08-04T04:30:58.482Z,18.94
2022-08-04T04:33:38.924Z,18.94
2022-08-04T04:36:14.529Z,18.96
2022-08-04T04:39:04.582Z,18.99
2022-08-04T04:42:00.617Z,19.03
2022-08-04T04:45:02.441Z,19.08
2022-08-04T04:48:01.699Z,19.05
2022-08-04T04:50:44.664Z,19.08
2022-08-04T04:53:21.818Z,19.07
2022-08-04T04:55:54.917Z,19.12
2022-08-04T04:58:25.177Z,19.11
2022-08-04T05:01:17.328Z,19.07
2022-08-04T05:04:15.152Z,19.07
2022-08-04T05:07:30.807Z,19.09
2022-08-04T05:10:08.533Z,19.12
2022-08-04T05:14:37.970Z,19.18
2022-08-04T05:15:45.088Z,19.14
2022-08-04T05:18:20.829Z,19.16
2022-08-04T05:20:54.554Z,19.13
2022-08-04T05:23:27.252Z,19.21
2022-08-04T05:26:00.553Z,19.28
2022-08-04T05:28:35.198Z,19.33
2022-08-04T05:31:07.688Z,19.37
2022-08-04T05:33:42.796Z,19.37
2022-08-04T05:36:24.894Z,19.38
2022-08-04T05:39:03.630Z,19.39
2022-08-04T05:41:45.517Z,19.52
2022-08-04T05:44:16.613Z,19.48
2022-08-04T05:46:53.723Z,19.48
2022-08-04T05:49:26.336Z,19.51
2022-08-04T05:51:57.547Z,19.54
2022-08-04T05:54:27.212Z,19.70
2022-08-04T05:56:56.805Z,19.75
2022-08-04T05:59:26.692Z,19.87
2022-08-04T06:01:58.027Z,19.97
2022-08-04T06:04:32.728Z,20.09
2022-08-04T06:07:01.084Z,19.92
2022-08-04T06:09:29.662Z,20.04
2022-08-04T06:12:04.220Z,20.10
2022-08-04T06:14:39.259Z,20.04
2022-08-04T06:19:56.552Z,20.14
2022-08-04T06:20:20.028Z,20.31
2022-08-04T06:22:53.824Z,20.39
2022-08-04T06:25:25.956Z,20.42
2022-08-04T06:27:55.952Z,20.53
2022-08-04T06:30:27.266Z,20.59
2022-08-04T06:33:03.847Z,20.61
2022-08-04T06:35:35.526Z,20.70
2022-08-04T06:38:05.528Z,20.75
2022-08-04T06:40:34.979Z,20.92
2022-08-04T06:43:05.692Z,21.19
2022-08-04T06:45:36.805Z,21.44
2022-08-04T06:48:07.489Z,21.45
2022-08-04T06:51:24.572Z,21.54
2022-08-04T06:53:26.631Z,21.82
2022-08-04T06:55:55.529Z,21.93
2022-08-04T06:58:24.566Z,21.88
2022-08-04T07:00:53.882Z,21.62
2022-08-04T07:03:25.247Z,21.59
2022-08-04T07:05:55.927Z,21.60
2022-08-04T07:08:24.550Z,21.60
2022-08-04T07:10:54.346Z,21.73
2022-08-04T07:13:24.623Z,21.76
2022-08-04T07:15:53.631Z,21.92
2022-08-04T07:18:21.962Z,22.04
2022-08-04T07:20:50.724Z,22.10
2022-08-04T07:23:26.092Z,22.33
2022-08-04T07:25:59.738Z,22.44
2022-08-04T07:28:41.058Z,22.53
2022-08-04T07:31:32.920Z,22.51
2022-08-04T07:34:16.575Z,22.53
2022-08-04T07:36:50.027Z,22.65
2022-08-04T07:39:27.570Z,22.54
2022-08-04T07:41:59.226Z,22.51
2022-08-04T07:44:31.122Z,22.67
2022-08-04T07:47:00.847Z,22.76
2022-08-04T07:49:56.363Z,22.84
2022-08-04T07:52:18.579Z,22.87
2022-08-04T07:54:48.980Z,22.91
2022-08-04T07:57:41.070Z,23.08
2022-08-04T08:00:12.320Z,23.08
2022-08-04T08:02:41.252Z,23.20
2022-08-04T08:05:11.259Z,23.24
2022-08-04T08:07:50.117Z,23.18
2022-08-04T08:10:24.252Z,23.26
2022-08-04T08:12:53.517Z,23.35
2022-08-04T08:15:22.711Z,23.20
2022-08-04T08:17:59.730Z,23.02
2022-08-04T08:20:32.938Z,22.86
2022-08-04T08:23:03.193Z,22.65
2022-08-04T08:25:33.685Z,22.51
2022-08-04T08:28:04.288Z,22.41
2022-08-04T08:30:34.275Z,22.36
2022-08-04T08:33:06.145Z,22.25
2022-08-04T08:35:49.325Z,22.22
2022-08-04T08:38:38.756Z,22.20
2022-08-04T08:41:35.914Z,21.97
2022-08-04T08:44:36.448Z,21.96
2022-08-04T08:47:20.696Z,21.87
2022-08-04T08:50:08.702Z,21.81
2022-08-04T08:53:02.533Z,21.78
2022-08-04T08:55:43.905Z,21.73
2022-08-04T08:58:32.434Z,21.68
2022-08-04T09:01:11.447Z,21.76
2022-08-04T09:03:58.661Z,21.83
2022-08-04T09:06:41.915Z,21.77
2022-08-04T09:09:30.025Z,21.82
2022-08-04T09:12:10.698Z,21.78
2022-08-04T09:14:50.090Z,21.80
2022-08-04T09:17:24.690Z,21.83
2022-08-04T09:19:59.822Z,21.96
2022-08-04T09:22:35.091Z,21.88
2022-08-04T09:25:12.331Z,21.88
2022-08-04T09:27:48.122Z,21.88
2022-08-04T09:30:21.241Z,21.74
2022-08-04T09:32:59.995Z,21.76
2022-08-04T09:35:38.758Z,21.92
2022-08-04T09:38:17.281Z,22.10
2022-08-04T09:40:55.293Z,22.44
2022-08-04T09:44:42.867Z,22.61
2022-08-04T09:46:34.429Z,22.64
2022-08-04T09:49:10.847Z,22.71
2022-08-04T09:51:57.781Z,22.77
2022-08-04T09:54:34.602Z,22.88
2022-08-04T09:57:12.007Z,23.00
2022-08-04T09:59:46.820Z,23.10
2022-08-04T10:02:20.309Z,23.09
2022-08-04T10:04:50.440Z,23.20
2022-08-04T10:07:30.927Z,23.41
2022-08-04T10:10:16.510Z,23.94
2022-08-04T10:13:12.276Z,24.73
2022-08-04T10:15:48.602Z,24.29
2022-08-04T10:18:41.480Z,24.51
2022-08-04T10:21:16.842Z,24.82
2022-08-04T10:24:00.104Z,25.18
2022-08-04T10:26:44.139Z,25.59
2022-08-04T10:29:15.987Z,26.25
2022-08-04T10:31:47.904Z,26.31
2022-08-04T10:34:22.755Z,26.21
2022-08-04T10:36:57.837Z,26.77
2022-08-04T10:39:42.126Z,26.70
2022-08-04T10:42:19.268Z,26.41
2022-08-04T10:45:01.902Z,26.47
2022-08-04T10:47:38.365Z,26.31
2022-08-04T10:50:11.569Z,26.13
2022-08-04T10:52:49.520Z,26.49
2022-08-04T10:55:21.142Z,26.81
2022-08-04T10:57:55.046Z,26.63
2022-08-04T11:00:26.885Z,26.62
2022-08-04T11:03:03.033Z,26.73
2022-08-04T11:05:43.883Z,26.87
2022-08-04T11:08:20.717Z,27.12
2022-08-04T11:11:00.407Z,27.39
2022-08-04T11:13:34.074Z,27.52
2022-08-04T11:16:07.623Z,27.61
2022-08-04T11:18:47.485Z,27.57
2022-08-04T11:21:21.862Z,27.79
2022-08-04T11:24:00.801Z,27.66
2022-08-04T11:26:39.285Z,27.55
2022-08-04T11:29:21.785Z,28.46
2022-08-04T11:31:52.278Z,28.56
2022-08-04T11:34:23.406Z,28.53
2022-08-04T11:37:00.801Z,28.57
2022-08-04T11:39:37.309Z,28.53
2022-08-04T11:42:11.550Z,28.85
2022-08-04T11:44:45.237Z,28.91
2022-08-04T11:47:23.325Z,28.89
2022-08-04T11:50:02.794Z,29.04
2022-08-04T11:52:35.255Z,28.98
2022-08-04T11:55:09.685Z,28.97
2022-08-04T11:57:38.524Z,29.23
2022-08-04T12:00:11.039Z,29.91
2022-08-04T12:03:16.892Z,29.16
2022-08-04T12:05:56.337Z,28.98
2022-08-04T12:08:37.406Z,28.58
2022-08-04T12:11:22.950Z,29.02
2022-08-04T12:14:00.833Z,29.05
2022-08-04T12:16:33.817Z,29.08
2022-08-04T12:19:06.740Z,28.97
2022-08-04T12:21:42.699Z,29.04
2022-08-04T12:24:22.677Z,28.97
2022-08-04T12:26:54.753Z,29.07
2022-08-04T12:29:25.295Z,28.95
2022-08-04T12:31:58.005Z,28.61
2022-08-04T12:34:33.781Z,29.05
2022-08-04T12:37:05.973Z,29.33
2022-08-04T12:40:21.646Z,29.65
2022-08-04T12:42:35.128Z,29.68
2022-08-04T12:45:08.468Z,29.43
2022-08-04T12:47:38.683Z,28.65
2022-08-04T12:50:09.998Z,28.32
2022-08-04T12:53:01.047Z,28.19
2022-08-04T12:55:34.489Z,28.43
2022-08-04T12:58:04.252Z,28.60
2022-08-04T13:00:44.000Z,28.12
2022-08-04T13:03:15.972Z,27.99
2022-08-04T13:05:46.809Z,27.68
2022-08-04T13:08:16.373Z,27.53
2022-08-04T13:10:49.915Z,27.85
2022-08-04T13:13:20.358Z,27.72
2022-08-04T13:15:59.846Z,27.79
2022-08-04T13:18:32.281Z,28.58
2022-08-04T13:21:19.996Z,29.09
2022-08-04T13:24:09.578Z,29.71
2022-08-04T13:26:54.371Z,30.23
2022-08-04T13:29:58.627Z,30.64
2022-08-04T13:32:18.493Z,30.64
2022-08-04T13:34:49.556Z,30.91
2022-08-04T13:37:24.502Z,31.19
2022-08-04T13:39:55.758Z,31.07
2022-08-04T13:42:27.952Z,31.30
2022-08-04T13:44:59.463Z,31.11
2022-08-04T13:47:31.483Z,30.98
2022-08-04T13:50:17.537Z,30.66
2022-08-04T13:52:47.014Z,29.63
2022-08-04T13:55:24.533Z,28.85
2022-08-04T13:57:59.328Z,28.97
2022-08-04T14:00:38.967Z,28.90
2022-08-04T14:03:23.847Z,29.91
2022-08-04T14:06:15.972Z,31.11
2022-08-04T14:08:51.971Z,31.27
2022-08-04T14:12:09.717Z,31.46
2022-08-04T14:14:21.288Z,31.52
2022-08-04T14:17:01.714Z,30.89
2022-08-04T14:19:48.507Z,29.80
2022-08-04T14:22:38.026Z,28.65
2022-08-04T14:25:15.689Z,28.39
2022-08-04T14:27:46.697Z,27.38
2022-08-04T14:30:28.324Z,27.44
2022-08-04T14:34:02.712Z,28.53
2022-08-04T14:35:58.627Z,30.46
2022-08-04T14:38:44.219Z,31.49
2022-08-04T14:41:13.034Z,31.74
2022-08-04T14:43:46.313Z,30.19
2022-08-04T14:46:16.755Z,29.13
2022-08-04T14:49:17.673Z,28.58
2022-08-04T14:51:52.785Z,30.07
2022-08-04T14:54:29.185Z,30.71
2022-08-04T14:56:59.436Z,31.43
2022-08-04T14:59:28.021Z,31.08
2022-08-04T15:02:00.926Z,29.83
2022-08-04T15:04:31.454Z,28.95
2022-08-04T15:07:00.876Z,29.82
2022-08-04T15:09:33.859Z,31.64
2022-08-04T15:12:04.279Z,31.28
2022-08-04T15:14:37.282Z,29.81
2022-08-04T15:17:27.167Z,28.52
2022-08-04T15:19:58.122Z,28.54
2022-08-04T15:22:26.967Z,29.87
2022-08-04T15:24:56.219Z,30.69
2022-08-04T15:27:27.636Z,29.83
2022-08-04T15:30:02.037Z,29.12
2022-08-04T15:32:35.214Z,28.56
2022-08-04T15:35:09.219Z,29.22
2022-08-04T15:37:56.134Z,30.69
2022-08-04T15:40:33.412Z,31.72
2022-08-04T15:43:12.496Z,32.00
2022-08-04T15:46:02.951Z,31.93
2022-08-04T15:48:52.017Z,29.87
2022-08-04T15:51:30.372Z,28.20
2022-08-04T15:54:23.547Z,26.83
2022-08-04T15:57:01.889Z,26.23
2022-08-04T16:00:03.282Z,25.91
2022-08-04T16:02:44.417Z,25.65
2022-08-04T16:05:39.211Z,27.28
2022-08-04T16:08:17.669Z,29.54
2022-08-04T16:10:51.029Z,29.46
2022-08-04T16:13:21.425Z,29.03
2022-08-04T16:15:55.387Z,28.44
2022-08-04T16:18:39.581Z,27.35
2022-08-04T16:21:22.754Z,27.67
2022-08-04T16:24:19.074Z,27.85
2022-08-04T16:26:54.394Z,27.16
2022-08-04T16:29:29.220Z,27.57
2022-08-04T16:32:17.224Z,27.68
2022-08-04T16:34:55.637Z,27.89
2022-08-04T16:37:32.165Z,29.12
2022-08-04T16:40:35.720Z,30.61
2022-08-04T16:43:08.322Z,30.56
2022-08-04T16:45:51.601Z,30.20
2022-08-04T16:48:21.898Z,29.89
2022-08-04T16:51:09.717Z,29.67
2022-08-04T16:54:02.930Z,29.66
2022-08-04T16:56:33.963Z,29.24
2022-08-04T16:59:10.325Z,28.78
2022-08-04T17:01:39.463Z,29.27
2022-08-04T17:04:08.109Z,29.31
2022-08-04T17:06:38.607Z,29.76
2022-08-04T17:09:13.657Z,28.69
2022-08-04T17:11:43.726Z,28.31
2022-08-04T17:14:12.636Z,27.36
2022-08-04T17:16:43.496Z,27.83
2022-08-04T17:19:20.367Z,27.67
2022-08-04T17:22:02.972Z,27.82
2022-08-04T17:24:36.514Z,28.46
2022-08-04T17:29:53.579Z,27.11
2022-08-04T17:32:23.426Z,26.40
2022-08-04T17:34:54.009Z,26.28
2022-08-04T17:37:52.664Z,25.92
2022-08-04T17:40:18.664Z,25.68
2022-08-04T17:43:03.220Z,25.27
2022-08-04T17:46:29.436Z,24.55
2022-08-04T17:49:04.413Z,24.36
2022-08-04T17:52:05.265Z,24.01
2022-08-04T17:57:23.065Z,23.49
2022-08-04T17:59:57.700Z,23.43
2022-08-04T18:05:50.268Z,23.36
2022-08-04T18:11:05.151Z,23.39
2022-08-04T18:13:42.830Z,23.12
2022-08-04T18:16:22.736Z,23.00
2022-08-04T18:19:09.693Z,22.88
2022-08-04T18:21:46.261Z,22.90
2022-08-04T18:24:34.254Z,22.95
2022-08-04T18:27:15.049Z,22.90
2022-08-04T18:30:15.472Z,22.79
2022-08-04T18:32:34.099Z,22.79
2022-08-04T18:35:05.119Z,22.72
2022-08-04T18:38:05.171Z,22.61
2022-08-04T18:40:26.678Z,22.66
2022-08-04T18:43:00.293Z,22.55
2022-08-04T18:45:34.545Z,22.64
2022-08-04T18:48:14.092Z,22.61
2022-08-04T18:51:10.456Z,22.57
2022-08-04T18:53:34.982Z,22.50
2022-08-04T18:58:53.800Z,22.38
2022-08-04T19:01:29.574Z,22.33
2022-08-04T19:03:59.033Z,22.19
2022-08-04T19:06:27.633Z,22.17
2022-08-04T19:08:55.948Z,22.05
2022-08-04T19:11:38.850Z,22.03
2022-08-04T19:14:13.780Z,22.04
2022-08-04T19:16:45.848Z,21.98
2022-08-04T19:19:17.347Z,22.04
2022-08-04T19:22:00.835Z,21.91
2022-08-04T19:24:34.668Z,21.83
2022-08-04T19:27:06.934Z,21.85
2022-08-04T19:29:41.277Z,21.78
2022-08-04T19:32:15.996Z,21.70
2022-08-04T19:34:47.082Z,21.80
2022-08-04T19:37:56.703Z,21.84
2022-08-04T19:40:06.772Z,21.88
2022-08-04T19:42:35.365Z,21.80
2022-08-04T19:45:03.906Z,21.78
2022-08-04T19:50:23.884Z,21.87
2022-08-04T19:52:52.971Z,21.80
2022-08-04T19:55:22.945Z,21.78
2022-08-04T19:58:08.497Z,21.72
2022-08-04T20:00:38.809Z,21.74
2022-08-04T20:03:11.634Z,21.66
2022-08-04T20:05:54.489Z,21.76
2022-08-04T20:08:30.288Z,21.77
2022-08-04T20:11:00.131Z,21.72
2022-08-04T20:13:36.897Z,21.73
2022-08-04T20:16:20.277Z,21.68
2022-08-04T20:19:02.640Z,21.72
2022-08-04T20:21:36.411Z,21.68
2022-08-04T20:24:40.299Z,21.67
2022-08-04T20:27:11.626Z,21.68
2022-08-04T20:29:51.823Z,21.73
2022-08-04T20:32:25.893Z,21.54
2022-08-04T20:34:57.324Z,21.54
2022-08-04T20:37:54.785Z,21.50
2022-08-04T20:40:15.955Z,21.47
2022-08-04T20:42:46.245Z,21.46
2022-08-04T20:45:16.658Z,21.40
2022-08-04T20:47:53.043Z,21.52
2022-08-04T20:50:30.131Z,21.43
2022-08-04T20:53:16.514Z,21.47
2022-08-04T20:55:55.059Z,21.48
2022-08-04T20:58:27.292Z,21.36
2022-08-04T21:00:57.356Z,21.43
2022-08-04T21:03:38.429Z,21.42
2022-08-04T21:06:15.909Z,21.49
2022-08-04T21:08:56.786Z,21.39
2022-08-04T21:11:32.690Z,21.46
2022-08-04T21:14:01.480Z,21.51
2022-08-04T21:16:55.467Z,21.64
2022-08-04T21:19:18.508Z,21.61
2022-08-04T21:21:53.327Z,21.46
2022-08-04T21:24:25.962Z,21.35
2022-08-04T21:26:56.861Z,21.32
2022-08-04T21:29:34.895Z,21.30
2022-08-04T21:32:05.864Z,21.48
2022-08-04T21:34:39.020Z,21.45
2022-08-04T21:37:11.301Z,21.32
2022-08-04T21:39:54.847Z,21.19
2022-08-04T21:42:30.874Z,21.19
2022-08-04T21:44:59.603Z,21.11
2022-08-04T21:47:45.857Z,21.07
2022-08-04T21:50:20.128Z,21.02
2022-08-04T21:52:50.863Z,21.01
2022-08-04T21:55:19.703Z,20.96
2022-08-04T21:57:49.298Z,20.94
2022-08-04T22:00:20.148Z,20.93
2022-08-04T22:02:53.364Z,20.95
2022-08-04T22:05:22.337Z,20.88
2022-08-04T22:07:52.300Z,20.75
2022-08-04T22:10:32.118Z,20.77
2022-08-04T22:13:06.742Z,20.72
2022-08-04T22:16:04.583Z,20.76
2022-08-04T22:18:27.873Z,20.73
2022-08-04T22:20:56.439Z,20.70
2022-08-04T22:23:26.274Z,20.68
2022-08-04T22:25:56.049Z,20.73
2022-08-04T22:28:28.538Z,20.76
2022-08-04T22:30:57.745Z,20.74
2022-08-04T22:33:54.482Z,20.76
2022-08-04T22:36:17.688Z,20.76
2022-08-04T22:38:56.889Z,20.76
2022-08-04T22:41:48.743Z,20.84
2022-08-04T22:44:20.765Z,20.76
2022-08-04T22:46:49.069Z,20.76
2022-08-04T22:49:17.364Z,20.81
2022-08-04T22:51:48.458Z,20.76
2022-08-04T22:54:20.760Z,20.77
2022-08-04T22:56:54.249Z,20.74
2022-08-04T22:59:22.576Z,20.70
2022-08-04T23:01:58.791Z,20.60
2022-08-04T23:04:31.668Z,20.61
2022-08-04T23:07:01.398Z,20.64
2022-08-04T23:09:50.272Z,20.65
2022-08-04T23:12:25.217Z,20.66
2022-08-04T23:14:54.737Z,20.59
2022-08-04T23:17:23.435Z,20.49
2022-08-04T23:19:58.177Z,20.57
2022-08-04T23:22:41.319Z,20.51
2022-08-04T23:25:15.805Z,20.46
2022-08-04T23:27:51.154Z,20.45
2022-08-04T23:30:24.591Z,20.43
2022-08-04T23:32:58.140Z,20.49
2022-08-04T23:35:26.610Z,20.40
2022-08-04T23:37:56.354Z,20.39
2022-08-04T23:40:32.772Z,20.34
2022-08-04T23:43:12.055Z,20.33
2022-08-04T23:46:07.547Z,20.32
2022-08-04T23:48:34.940Z,20.24
2022-08-04T23:51:13.965Z,20.27
2022-08-04T23:54:03.378Z,20.28
2022-08-04T23:56:33.974Z,20.20
2022-08-04T23:59:04.404Z,20.18
